Weather at Mother Teresa Hospital Heliport

Public forecast

Using degrees Celsius for public forecast. Weather courtesy of forecast.io.

Closest aviation weather report (METAR) to Mother Teresa Hospital Heliport

Closest report is Tirana International Airport Mother Teresa, 6.7 nm (12.4 km) NW.

2022/11/27 09:20 (retrieved 26 minutes ago)

LATI 270920Z VRB02KT 9999 BKN130 12/04 Q1021 NOSIG

Closest aviation forecast (TAF) to Mother Teresa Hospital Heliport

Closest forecast is Tirana International Airport Mother Teresa, 6.7 nm (12.4 km) NW.

2022/11/27 06:06 (retrieved 4 hours ago)

TAF LATI 270500Z 2706/2806 VRB05KT 9999 BKN140 TX13/2712Z TN03/2804Z BECMG 2712/2714 BKN050 TEMPO 2718/2806 -SHRA SCT025